Station Historical Data
Daily Summary for June 13, 2017 Units:  Metric    English   Both
« Previous Day
Next Day »
Daily Weekly Monthly Yearly Custom
  High: Low: Average:
Temperature: 30.9 °C 20.3 °C 24.7 °C
Dew Point: 21.7 °C 18.3 °C 19.7 °C
Humidity: 93% 51% 76%
Wind Speed: 1.6km/h 0km/h 0km/h
Wind Gust: 4.8km/h - -
Wind- - SSW
Pressure: 1020.9 hPa 1015.8 hPa -
Precipitation: 13.46 mm    
Historical Graphs
 
 
Tabular Data for June 13, 2017
Time Temperature Dew Point Pressure Wind Wind Speed Wind Gust Humidity Rainfall Rate (Hourly) Conditions
00:00 22.3 °C 19.7 °C 1019.5 hPa Calm     85% 0 mm CLR
00:10 22.3 °C 19.6 °C 1019.5 hPa Calm     85% 0 mm CLR
00:20 22.2 °C 19.6 °C 1019.5 hPa Calm     85% 0 mm CLR
00:30 22.2 °C 19.5 °C 1019.5 hPa Calm     85% 0 mm CLR
00:40 22.1 °C 19.4 °C 1019.5 hPa Calm     85% 0 mm CLR
00:50 22 °C 19.6 °C 1019.5 hPa Calm     86% 0 mm CLR
01:00 21.9 °C 19.4 °C 1019.5 hPa Calm     86% 0 mm CLR
01:10 21.7 °C 19.5 °C 1019.5 hPa Calm     87% 0 mm CLR
01:20 21.6 °C 19.3 °C 1019.5 hPa Calm     87% 0 mm CLR
01:30 21.4 °C 19.3 °C 1019.5 hPa Calm     88% 0 mm CLR
01:40 21.3 °C 19.4 °C 1019.2 hPa Calm     89% 0 mm CLR
01:50 21.2 °C 19.3 °C 1019.2 hPa Calm     89% 0 mm CLR
02:00 21.2 °C 19.3 °C 1019.5 hPa Calm     89% 0 mm CLR
02:10 20.6 °C 18.7 °C 1019.2 hPa Calm     89% 0 mm CLR
02:20 20.6 °C 18.7 °C 1019.5 hPa Calm     89% 0 mm CLR
02:30 20.6 °C 18.7 °C 1019.5 hPa Calm     89% 0 mm CLR
02:40 20.6 °C 18.7 °C 1019.5 hPa Calm     89% 0 mm CLR
02:50 20.6 °C 18.7 °C 1019.5 hPa Calm     89% 0 mm CLR
03:00 20.6 °C 18.7 °C 1019.2 hPa Calm     89% 0 mm CLR
03:10 20.6 °C 18.7 °C 1019.2 hPa Calm     89% 0 mm CLR
03:20 20.6 °C 18.7 °C 1019.2 hPa Calm     89% 0 mm CLR
03:30 20.6 °C 18.7 °C 1019.2 hPa Calm     89% 0 mm CLR
03:40 20.6 °C 18.7 °C 1019.2 hPa Calm     89% 0 mm CLR
03:50 20.6 °C 18.7 °C 1019.2 hPa Calm     89% 0 mm CLR
04:00 20.6 °C 18.7 °C 1019.2 hPa Calm     89% 0 mm CLR
04:10 20.6 °C 18.7 °C 1019.2 hPa Calm     89% 0 mm CLR
04:20 20.6 °C 18.7 °C 1019.2 hPa Calm     89% 0 mm CLR
04:30 20.6 °C 18.7 °C 1019.2 hPa Calm     89% 0 mm CLR
04:40 20.6 °C 18.7 °C 1019.2 hPa Calm     89% 0 mm CLR
04:50 20.6 °C 18.7 °C 1019.2 hPa Calm     89% 0 mm CLR
05:00 20.6 °C 18.7 °C 1019.2 hPa Calm     89% 0 mm CLR
05:10 20.6 °C 18.7 °C 1019.2 hPa Calm     89% 0 mm CLR
05:20 20.6 °C 18.7 °C 1019.5 hPa Calm     89% 0 mm CLR
05:30 20.6 °C 18.7 °C 1019.5 hPa Calm     89% 0 mm CLR
05:40 20.6 °C 18.7 °C 1019.5 hPa Calm     89% 0 mm CLR
05:50 20.6 °C 18.7 °C 1019.5 hPa Calm     89% 0 mm CLR
06:00 20.6 °C 18.7 °C 1019.5 hPa Calm     89% 0 mm CLR
06:10 20.6 °C 18.7 °C 1019.5 hPa Calm     89% 0 mm CLR
06:30 20.6 °C 18.7 °C 1019.9 hPa Calm     89% 0 mm CLR
06:40 20.6 °C 18.7 °C 1019.9 hPa Calm     89% 0 mm CLR
06:50 20.6 °C 18.7 °C 1019.9 hPa Calm     89% 0 mm CLR
07:00 20.6 °C 18.7 °C 1019.9 hPa Calm     89% 0 mm CLR
07:10 20.6 °C 18.7 °C 1019.9 hPa Calm     89% 0 mm CLR
07:20 20.6 °C 18.7 °C 1020.2 hPa Calm     89% 0 mm CLR
07:30 20.6 °C 18.7 °C 1020.2 hPa Calm     89% 0 mm CLR
07:40 20.6 °C 18.7 °C 1020.2 hPa Calm     89% 0 mm CLR
08:00 20.6 °C 18.7 °C 1020.2 hPa Calm     89% 0 mm CLR
08:10 20.6 °C 18.7 °C 1020.2 hPa Calm     89% 0 mm CLR
08:20 20.6 °C 18.7 °C 1020.5 hPa Calm     89% 0 mm CLR
08:30 20.6 °C 18.7 °C 1020.5 hPa Calm     89% 0 mm CLR
08:40 21.7 °C 20.5 °C 1020.5 hPa Calm     93% 0 mm CLR
08:50 22 °C 20.8 °C 1020.5 hPa Calm     93% 0 mm CLR
09:00 22.3 °C 20.8 °C 1020.5 hPa Calm     91% 0 mm CLR
09:10 22.8 °C 20.6 °C 1020.5 hPa Calm     87% 0 mm CLR
09:20 23.4 °C 20.6 °C 1020.9 hPa Calm     84% 0 mm CLR
09:30 23.9 °C 20.5 °C 1020.9 hPa Calm   1.6 km/h 81% 0 mm CLR
09:40 24.2 °C 20.3 °C 1020.9 hPa Calm   3.2 km/h 79% 0 mm CLR
09:50 24.5 °C 20.4 °C 1020.5 hPa Calm   3.2 km/h 78% 0 mm CLR
10:00 24.9 °C 20.8 °C 1020.9 hPa Calm   3.2 km/h 78% 0 mm CLR
10:10 25.6 °C 20.4 °C 1020.5 hPa South 1.6 km/h 3.2 km/h 73% 0 mm CLR
10:20 26.3 °C 21.5 °C 1020.5 hPa Calm   3.2 km/h 75% 0 mm CLR
10:30 26.8 °C 20.9 °C 1020.5 hPa Calm   1.6 km/h 70% 0 mm CLR
10:40 26.4 °C 20.6 °C 1020.5 hPa Calm   1.6 km/h 70% 0 mm CLR
10:50 26 °C 20.8 °C 1020.2 hPa Calm   1.6 km/h 73% 0 mm CLR
11:00 25.9 °C 20.2 °C 1020.2 hPa Calm   1.6 km/h 71% 0 mm CLR
11:20 26.2 °C 19.9 °C 1020.5 hPa Calm   1.6 km/h 68% 0 mm CLR
11:30 26.5 °C 19.8 °C 1020.5 hPa Calm   1.6 km/h 67% 0 mm CLR
11:40 27.1 °C 20.2 °C 1020.5 hPa Calm   1.6 km/h 66% 0 mm CLR
11:50 27.5 °C 19.8 °C 1020.2 hPa Calm   1.6 km/h 63% 0 mm CLR
12:00 27.9 °C 20.5 °C 1020.2 hPa Calm   1.6 km/h 64% 0 mm CLR
12:10 28.2 °C 20.2 °C 1019.9 hPa Calm   1.6 km/h 62% 0 mm CLR
12:20 28.5 °C 20 °C 1019.9 hPa Calm   1.6 km/h 60% 0 mm CLR
12:30 28.6 °C 19.6 °C 1019.5 hPa Calm   3.2 km/h 58% 0 mm CLR
12:40 28.9 °C 20.1 °C 1019.5 hPa Calm   3.2 km/h 59% 0 mm CLR
12:50 29.7 °C 20.3 °C 1019.2 hPa Calm   1.6 km/h 57% 0 mm CLR
13:00 29.6 °C 20.8 °C 1019.2 hPa NW 1.6 km/h 1.6 km/h 59% 0 mm CLR
13:10 29.6 °C 19.6 °C 1018.8 hPa Calm   4.8 km/h 55% 0 mm CLR
13:20 29.9 °C 20.2 °C 1018.8 hPa Calm   1.6 km/h 56% 0 mm CLR
13:30 29.6 °C 20.4 °C 1018.8 hPa Calm   1.6 km/h 58% 0 mm CLR
13:40 28.7 °C 20.4 °C 1018.8 hPa Calm   1.6 km/h 61% 0 mm CLR
13:50 28.4 °C 20.9 °C 1018.5 hPa Calm     64% 0 mm CLR
14:00 28.8 °C 21.1 °C 1018.5 hPa Calm   1.6 km/h 63% 0 mm CLR
14:10 29.7 °C 20.6 °C 1018.5 hPa Calm     58% 0 mm CLR
14:20 29.6 °C 20.4 °C 1018.2 hPa Calm   1.6 km/h 58% 0 mm CLR
14:30 29.2 °C 21.1 °C 1018.2 hPa Calm   3.2 km/h 62% 0 mm CLR
14:40 28.8 °C 19.7 °C 1018.2 hPa SW 1.6 km/h 1.6 km/h 58% 0 mm CLR
14:50 28.8 °C 19.7 °C 1017.8 hPa Calm   1.6 km/h 58% 0 mm CLR
15:00 28.7 °C 19.3 °C 1017.5 hPa Calm   1.6 km/h 57% 0 mm CLR
15:10 28.4 °C 20.2 °C 1017.5 hPa Calm     61% 0 mm CLR
15:20 28.8 °C 19.7 °C 1017.2 hPa Calm   1.6 km/h 58% 0 mm CLR
15:30 29 °C 19.6 °C 1017.2 hPa Calm   1.6 km/h 57% 0 mm CLR
15:40 29.3 °C 19.9 °C 1016.8 hPa Calm   1.6 km/h 57% 0 mm CLR
15:50 29.5 °C 18.3 °C 1016.8 hPa North 1.6 km/h 1.6 km/h 51% 0 mm CLR
16:00 29.7 °C 19.1 °C 1016.5 hPa Calm   3.2 km/h 53% 0 mm CLR
16:10 29.6 °C 20.2 °C 1016.5 hPa Calm     57% 0 mm CLR
16:20 29.3 °C 19.6 °C 1016.5 hPa Calm     56% 0 mm CLR
16:30 29.2 °C 19.6 °C 1016.5 hPa Calm     56% 0 mm CLR
16:40 29.4 °C 21.3 °C 1016.5 hPa Calm     62% 0 mm CLR
16:50 29.8 °C 19.8 °C 1016.1 hPa Calm   1.6 km/h 55% 0 mm CLR
17:00 30.6 °C 20.4 °C 1016.1 hPa Calm     55% 0 mm CLR
17:10 30.8 °C 20.7 °C 1016.1 hPa Calm   1.6 km/h 55% 0 mm CLR
17:20 30.9 °C 20.2 °C 1016.1 hPa Calm     53% 0 mm CLR
17:30 30.9 °C 19.6 °C 1015.8 hPa Calm     51% 0 mm CLR
17:40 30.4 °C 20.1 °C 1015.8 hPa Calm   1.6 km/h 54% 0 mm CLR
17:50 30.3 °C 19.7 °C 1015.8 hPa Calm   1.6 km/h 53% 0 mm CLR
18:00 30.3 °C 19 °C 1015.8 hPa Calm   1.6 km/h 51% 0 mm CLR
18:10 29.9 °C 19.9 °C 1016.1 hPa Calm     55% 0 mm CLR
18:20 29.3 °C 20.2 °C 1015.8 hPa Calm     58% 0 mm CLR
18:30 28.6 °C 20.6 °C 1016.1 hPa Calm     62% 0 mm CLR
18:40 28.4 °C 21 °C 1015.8 hPa Calm     64% 0 mm CLR
18:50 28.2 °C 20.5 °C 1015.8 hPa Calm     63% 0 mm CLR
19:00 27.9 °C 20.2 °C 1015.8 hPa Calm   1.6 km/h 63% 0 mm CLR
19:10 27.4 °C 20.1 °C 1015.8 hPa Calm   1.6 km/h 64% 0 mm CLR
19:20 27.3 °C 20.2 °C 1016.1 hPa Calm     65% 0 mm CLR
19:30 27.2 °C 20.6 °C 1016.1 hPa Calm     67% 0 mm CLR
19:40 27.1 °C 20.4 °C 1016.1 hPa Calm     67% 0 mm CLR
19:50 26.9 °C 20.6 °C 1016.5 hPa Calm     68% 0 mm CLR
20:00 26.7 °C 20.3 °C 1016.5 hPa Calm     68% 0 mm CLR
20:10 26.6 °C 20.4 °C 1016.5 hPa Calm     69% 0 mm CLR
20:20 26.4 °C 20.6 °C 1016.5 hPa Calm     70% 0 mm CLR
20:30 26.3 °C 20.4 °C 1016.5 hPa Calm     70% 0 mm CLR
20:40 26.2 °C 20.5 °C 1016.8 hPa Calm     71% 0 mm CLR
20:50 26 °C 20.3 °C 1016.5 hPa Calm     71% 0 mm CLR
21:00 25.9 °C 20.7 °C 1016.8 hPa Calm     73% 0 mm CLR
21:10 25.8 °C 20.6 °C 1016.8 hPa Calm     73% 0 mm CLR
21:20 25.7 °C 20.7 °C 1016.8 hPa Calm     74% 0 mm CLR
21:30 25.4 °C 21.7 °C 1016.8 hPa WNW 1.6 km/h 3.2 km/h 80% 0 mm CLR
21:40 24.2 °C 21.1 °C 1017.2 hPa Calm     83% 0 mm CLR
21:50 23.8 °C 21.1 °C 1017.2 hPa Calm     85% 0 mm CLR
22:00 23.4 °C 20.8 °C 1017.2 hPa Calm     85% 0 mm CLR
22:10 23.1 °C 20.1 °C 1017.5 hPa Calm   1.6 km/h 83% 0 mm CLR
22:20 22.8 °C 20.2 °C 1017.5 hPa Calm     85% 0.25 mm RA
22:30 22.1 °C 19.8 °C 1017.8 hPa Calm   1.6 km/h 87% 0.51 mm RA
22:40 21.7 °C 19.8 °C 1017.8 hPa Calm   1.6 km/h 89% 1.02 mm RA
22:50 21.2 °C 19.3 °C 1018.2 hPa Calm   1.6 km/h 89% 2.54 mm RA
23:00 20.9 °C 19 °C 1018.5 hPa Calm   1.6 km/h 89% 2.54 mm RA
23:10 20.6 °C 18.8 °C 1018.2 hPa Calm   1.6 km/h 90% 3.3 mm RA
23:20 20.3 °C 18.8 °C 1018.5 hPa Calm   1.6 km/h 91% 2.03 mm RA
23:30 20.3 °C 18.8 °C 1018.2 hPa Calm   1.6 km/h 91% 0.76 mm CLR
23:40 20.3 °C 18.9 °C 1018.2 hPa Calm     92% 0.25 mm CLR
23:50 20.3 °C 19 °C 1018.2 hPa Calm     92% 0 mm CLR
Piedmont Bend
Compliments of Weather Underground - 2 mb